Markus Lang

Olheiro-Chefe - VfL Wolfsburg
4 Abr 2027
Domingo
Processo

Personalidade

Adaptabilidade (11) Ambição (13) Controvérsia (15) Lealdade (16) Pressão (12) Profissionalismo (3) Espírito Esportivo (8) Temperamento (8)

Perfil

Estilo de Treinamento Democrático
Licença Continental A
Determinação 11
Gestão de Pessoas 7
Motivação 14
Disciplina 8
Satisfação no Trabalho
66%
Fadiga
0%
Função Olheiro-Chefe
Salário 79.8K p/s
Contrato 14.03.2029

Desempenho

Comportamento Bom
Eficácia do Treinamento
37%
Desenvolvimento do Jogador
40%
Prevenção de Lesões
75%
Implementação Tática
55%

Eventos Recentes

Avaliou um jogador agora
Participou de uma reunião de recrutamento agora
Recomendou um alvo de transferência agora
Recomendou um alvo de transferência agora
Avaliou um jogador agora
Avaliou um jogador agora
Avaliou um jogador 7d atrás
Avaliou um jogador 7d atrás

Monitorando agora

174
Jogador Clube Status Habilidade Confiança Observado Última observação Último voto
Yves Bissouma Tottenham Ativo 153 / 139 40% 3 02.04.2027 -
Pablo Rosario Porto Ativo 148 / 133 40% 5 02.04.2027 -
Philipp Lienhart SC Freiburg Ativo 154 / 146 40% 3 01.04.2027 -
Seiya Maikuma AZ Ativo 138 / 141 40% 1 01.04.2027 -
Ben Ahmed Kohili Paradou Ativo 112 / 104 40% 1 01.04.2027 -
Gorka Carrera Real Sociedad Ativo 123 / 116 40% 1 01.04.2027 -
Marcos Antonio Sport Recife Ativo 141 / 134 40% 2 30.03.2027 -
Merih Demiral Al-Ahli Ativo 130 / 126 40% 1 30.03.2027 -
Sébastien Durand Tours Ativo 146 / 136 40% 3 29.03.2027 -
Thierry Rendall Correia Venezia Ativo 139 / 146 40% 3 29.03.2027 -
Marcel Ruiz Toluca Ativo 149 / 148 40% 3 28.03.2027 -
Michel Ndary Adopo Cagliari Ativo 140 / 142 40% 1 28.03.2027 -
Munir Albacete Ativo 126 / 120 40% 1 28.03.2027 -
Daniel Muñoz Racing Genk Ativo 155 / 148 40% 3 26.03.2027 -
Emam Ashour Al Ahly Ativo 135 / 137 40% 4 26.03.2027 -
Roger Ibañez Al-Ahli Ativo 160 / 154 40% 6 25.03.2027 -
Davide Calabria Panathinaikos Ativo 138 / 132 40% 3 25.03.2027 -
Richard Ledezma Guadalajara Ativo 150 / 125 40% 2 23.03.2027 -
Renan Lodi Atlético Mineiro Ativo 121 / 138 40% 4 22.03.2027 -
Nino Zenit Ativo 148 / 140 40% 3 22.03.2027 -
Malcom Al Jazira Ativo 148 / 160 40% 5 21.03.2027 -
Pedro Malheiro Al Wasl Ativo 137 / 144 40% 1 21.03.2027 -
Roger Brugué Levante Ativo 123 / 127 40% 1 21.03.2027 -
Nayef Aguerd Olympique de Marseille Ativo 149 / 144 40% 8 19.03.2027 -
Hwang In-Beom Porto Ativo 147 / 144 40% 3 19.03.2027 -
Djibril Sow Genoa Ativo 139 / 140 40% 4 18.03.2027 -
Diego Costa Krasnodar Ativo 131 / 141 40% 1 17.03.2027 -
Jan Bednarek Porto Ativo 154 / 148 40% 10 16.03.2027 -
Iqraam Rayners Mamelodi Sundowns Ativo 121 / 135 40% 1 16.03.2027 -
Helinho Toluca Ativo 148 / 135 40% 1 16.03.2027 -
Isi Palazón Rayo Vallecano Ativo 147 / 136 40% 5 14.03.2027 -
Sandro Las Palmas Ativo 130 / 128 40% 2 14.03.2027 -
Davinson Sánchez Galatasaray Ativo 136 / 155 40% 9 12.03.2027 -
Eren Elmalı Galatasaray Ativo 133 / 133 40% 1 12.03.2027 -
Jean Rodriguez Chamois Niortais Ativo 152 / 142 40% 7 11.03.2027 -
Percy Erasmus SuperSport United Ativo 123 / 116 40% 1 11.03.2027 -
Zizo Al Ahly Ativo 131 / 132 40% 1 11.03.2027 -
Kauã Elias Shakhtar Ativo 131 / 130 40% 1 10.03.2027 -
Dom Ballard Leyton Orient Ativo 129 / 126 40% 1 10.03.2027 -
Valentino Lazaro Al Ain Ativo 149 / 130 40% 2 06.03.2027 -
Sikou Niakaté Braga Ativo 128 / 141 40% 1 05.03.2027 -
Lucas Paquetá Flamengo Ativo 148 / 149 40% 3 04.03.2027 -
Álex Valle Como Ativo 145 / 138 40% 1 03.03.2027 -
Marquinhos Spartak Moscow Ativo 125 / 125 40% 1 03.03.2027 -
Efraín Álvarez Guadalajara Ativo 136 / 130 40% 1 03.03.2027 -
Maher Carrizo Ajax Ativo 132 / 126 40% 1 02.03.2027 -
Pablo Maffeo Olympiacos Ativo 152 / 136 40% 2 28.02.2027 -
Oleksandr Zinchenko Fenerbahce Ativo 155 / 145 40% 3 26.02.2027 -
Mohamed Simakan Al-Nassr Ativo 130 / 135 40% 3 24.02.2027 -
Youssef Al Bloushi Al Shabab Ativo 157 / 149 40% 1 24.02.2027 -
Bart van Rooij Twente Ativo 133 / 140 40% 1 23.02.2027 -
Lukas Klostermann RB Leipzig Ativo 126 / 133 40% 3 20.02.2027 -
Oussama Targhalline Feyenoord Ativo 129 / 135 40% 2 19.02.2027 -
Gustaf Lagerbielke Braga Ativo 144 / 131 40% 1 07.02.2027 -
Odilon Kossounou Atalanta Ativo 137 / 140 40% 1 06.02.2027 -
Federico Pereira Toluca Ativo 125 / 134 40% 1 05.02.2027 -
Batista Mendy Trabzonspor Ativo 129 / 142 40% 2 04.02.2027 -
Danilo Botafogo Ativo 123 / 139 40% 1 04.02.2027 -
Rasmus Kristensen FC Midtjylland Ativo 149 / 150 40% 1 03.02.2027 -
Moussa Niakhaté Olympique Lyonnais Ativo 138 / 143 40% 4 01.02.2027 -
Toni Fruk Anderlecht Ativo 132 / 133 66% 1 11.01.2027 Aprovar
Kyle Walker-Peters West Ham United Ativo 139 / 134 40% 1 10.01.2027 -
Ismaël Bennacer Palmeiras Ativo 143 / 147 40% 2 08.01.2027 -
Aleix Febas Celta Ativo 133 / 144 40% 1 07.01.2027 -
Yacine Adli Al-Shabab Ativo 127 / 149 40% 1 05.01.2027 -
Antoine Guérin Chamois Niortais Ativo 162 / 154 40% 1 02.01.2027 -
Roberto Alvarado Guadalajara Ativo 139 / 139 66% 1 01.01.2027 Aprovar
Jaden Philogene Ipswich Town Perdido 136 / 137 66% 1 01.01.2027 Aprovar
Jakub Moder Feyenoord Ativo 143 / 145 40% 3 29.12.2026 -
Benjamin Henrichs RB Leipzig Ativo 153 / 142 40% 1 29.12.2026 -
Lucas Torreira Galatasaray Ativo 151 / 160 40% 5 28.12.2026 -
Nehuén Pérez Porto Ativo 145 / 136 40% 1 28.12.2026 -
Caio Henrique Ajax Ativo 137 / 130 40% 1 27.12.2026 -
Takumi Minamino Monaco Ativo 141 / 132 40% 1 27.12.2026 -
Wilfried Singo Galatasaray Ativo 151 / 143 40% 1 25.12.2026 -
Israel Reyes Club America Ativo 130 / 133 40% 3 24.12.2026 -
Bernardo TSG Hoffenheim Ativo 132 / 140 40% 2 23.12.2026 -
Farès Chaïbi Eintracht Frankfurt Ativo 132 / 148 40% 1 23.12.2026 -
Alexis Vega Toluca Ativo 149 / 148 40% 4 19.12.2026 -
Grischa Prömel Heidenheim Ativo 150 / 135 40% 1 19.12.2026 -
Radek Vítek Middlesbrough Ativo 130 / 138 40% 3 17.12.2026 -
Sebastián Córdova Pumas UNAM Ativo 129 / 133 40% 1 17.12.2026 -
Marvin Keller Young Boys Ativo 142 / 144 40% 1 17.12.2026 -
Ajay Matthews Millwall Ativo 97 / 104 40% 1 17.12.2026 -
Aitor Ruibal Betis Ativo 145 / 141 40% 1 14.12.2026 -
Patrick Berg Bodo/Glimt Ativo 128 / 148 40% 2 11.12.2026 -
Iván Martín Racing Club Ativo 158 / 156 40% 3 10.12.2026 -
Matthieu Udol RC Lens Ativo 129 / 131 40% 1 10.12.2026 -
David Fernández O'Higgins Ativo 112 / 123 40% 2 09.12.2026 -
Beñat Turrientes Real Sociedad Ativo 147 / 139 40% 1 07.12.2026 -
Lukáš Provod Slavia Prague Ativo 154 / 138 40% 4 05.12.2026 -
Ryan Kavuma-McQueen Chelsea Ativo 95 / 119 40% 2 04.12.2026 -
Esequiel Barco Spartak Moscow Ativo 137 / 135 40% 1 04.12.2026 -
Furkan Dursun Thun Ativo 101 / 111 40% 4 03.12.2026 -
Dženan Pejčinović VfB Stuttgart Ativo 130 / 131 40% 1 03.12.2026 -
Théo Hernández Al-Hilal Ativo 140 / 138 40% 2 02.12.2026 -
Hidemasa Morita Hull City Ativo 152 / 137 40% 3 29.11.2026 -
Mauro Arambarri River Plate Ativo 170 / 166 40% 5 28.11.2026 -
Axel Openda KV Oostende Ativo 128 / 125 40% 2 27.11.2026 -
Nikolay Zlatev Cherno More Ativo 105 / 110 40% 2 25.11.2026 -
Christos Zafeiris Galatasaray Ativo 125 / 144 40% 1 25.11.2026 -
Agustín Palavecino Cruz Azul Ativo 149 / 141 40% 4 24.11.2026 -
Diego Coppola Paris FC Ativo 148 / 141 40% 1 24.11.2026 -
Fabrício Bruno Cruzeiro Ativo 127 / 146 40% 1 21.11.2026 -
Stephen Eustáquio Swansea City Ativo 127 / 138 40% 1 19.11.2026 -
Soufiane Rahimi Al Ain Ativo 124 / 131 40% 1 19.11.2026 -
Ainsley Maitland-Niles Olympique Lyonnais Ativo 138 / 130 40% 1 15.11.2026 -
Martinelli Fluminense Ativo 132 / 126 40% 1 14.11.2026 -
Luis Romo Guadalajara Ativo 127 / 146 40% 2 09.11.2026 -
Orbelín Pineda Monterrey Ativo 148 / 148 40% 3 08.11.2026 -
Sofyan Amrabat Ajax Ativo 130 / 142 40% 1 06.11.2026 -
Gabriel Sara Galatasaray Ativo 131 / 138 40% 1 05.11.2026 -
Timothy Castagne Fulham Ativo 131 / 141 40% 1 04.11.2026 -
Léo Ortiz Flamengo Ativo 128 / 145 40% 2 03.11.2026 -
Brais Méndez Columbus Crew Ativo 154 / 136 40% 1 01.11.2026 -
Javi Galán Celta Ativo 141 / 150 40% 5 31.10.2026 -
Kenny Tete Fulham Ativo 136 / 136 40% 3 30.10.2026 -
José Paradela Cruz Azul Ativo 151 / 131 40% 7 29.10.2026 -
Sergio Reguilón Inter Miami CF Ativo 138 / 133 40% 2 29.10.2026 -
Jon Guridi Sevilla Ativo 138 / 130 40% 1 28.10.2026 -
Ritsu Doan Gamba Osaka Ativo 152 / 140 40% 2 26.10.2026 -
Donnell McNeilly Nottingham Forest Ativo 102 / 118 40% 1 26.10.2026 -
Will Lankshear Middlesbrough Ativo 111 / 131 40% 3 23.10.2026 -
Cesar Corona Veracruz Ativo 126 / 135 40% 2 22.10.2026 -
Hany Mukhtar Hamburger SV Ativo 125 / 136 40% 1 22.10.2026 -
Haissem Hassan Bloemfontein Celtic Ativo 149 / 140 40% 1 20.10.2026 -
Sergej Milinković-Savić Al-Hilal Ativo 145 / 154 40% 1 20.10.2026 -
Héctor Bellerín Betis Ativo 132 / 134 40% 2 19.10.2026 -
Jesus Sinisterra Sevilla Ativo 138 / 150 40% 1 18.10.2026 -
Nicolás Fernández Mercau New York City Ativo 150 / 128 40% 1 17.10.2026 -
Óliver Monterrey Ativo 151 / 129 40% 2 16.10.2026 -
Michy Fellaini KV Oostende Ativo 128 / 138 40% 1 15.10.2026 -
Alejandro Zendejas Club America Ativo 125 / 137 40% 3 11.10.2026 -
Gorka Guruzeta Athletic Bilbao Ativo 152 / 146 40% 2 10.10.2026 -
Alexander Lyng SonderjyskE Ativo 127 / 116 40% 2 09.10.2026 -
Ilias Akhomach Villarreal Ativo 129 / 135 40% 2 06.10.2026 -
Santiago Montiel Independiente Ativo 135 / 124 40% 1 04.10.2026 -
Leandro Lozano Boca Juniors Ativo 125 / 114 40% 1 04.10.2026 -
Jesús Angulo Tigres Ativo 130 / 131 40% 1 04.10.2026 -
Denis Bouanga Los Angeles Football Club Ativo 124 / 146 40% 1 04.10.2026 -
Conrad Harder RB Leipzig Ativo 122 / 135 40% 1 02.10.2026 -
Ryan Gauld Vancouver Whitecaps Ativo 132 / 146 40% 1 01.10.2026 -
Jens Petter Hauge Bodo/Glimt Ativo 128 / 137 40% 1 29.09.2026 -
Arkaitz Mariezkurrena Real Sociedad Ativo 109 / 122 40% 2 28.09.2026 -
Yoshan Valois Lanús Ativo 124 / 128 40% 1 28.09.2026 -
Adama Traoré Deportivo La Coruña Ativo 127 / 139 40% 4 26.09.2026 -
Fernando Gorriarán Tigres Ativo 124 / 137 40% 2 25.09.2026 -
Takuma Asano Sanfrecce Hiroshima Ativo 124 / 148 40% 1 22.09.2026 -
Eliezer Mayenda Stade Rennais Ativo 130 / 134 40% 1 21.09.2026 -
Justin Hammel Grasshopper Ativo 109 / 127 40% 1 20.09.2026 -
Michael Cooper Sheffield United Ativo 135 / 122 40% 1 20.09.2026 -
Marco Asensio Fenerbahce Ativo 163 / 147 40% 1 14.09.2026 -
Jonathan Bamba Chicago Fire Ativo 120 / 135 40% 1 14.09.2026 -
Diego Conde Villarreal Ativo 129 / 131 40% 1 14.09.2026 -
Thiago Almada River Plate Ativo 161 / 137 40% 3 12.09.2026 -
Luke Baartman Chippa United Ativo 110 / 95 40% 2 05.09.2026 -
Ángel Correa River Plate Ativo 138 / 147 40% 1 05.09.2026 -
Evander FC Cincinnati Ativo 121 / 144 40% 1 02.09.2026 -
Kasra Taheri Sepahan Ativo 122 / 118 40% 1 01.09.2026 -
Vitor Roque Palmeiras Ativo 126 / 135 40% 1 01.09.2026 -
Rayan Fofana RC Lens Ativo 121 / 123 40% 1 31.08.2026 -
Rocco Vata Watford Ativo 122 / 127 40% 1 29.08.2026 -
Leon Bailey Aston Villa Ativo 141 / 134 40% 1 28.08.2026 -
Josip Juranović Union Berlin Ativo 139 / 128 40% 1 25.08.2026 -
Rúben Neves Al-Hilal Ativo 160 / 142 40% 1 24.08.2026 -
Samú Al-Nassr Ativo 128 / 159 40% 2 21.08.2026 -
Saša Lukić Ipswich Town Ativo 142 / 133 40% 1 19.08.2026 -
Alan Varela Porto Ativo 149 / 150 40% 1 19.08.2026 -
Rico Henry RB Leipzig Ativo 133 / 140 40% 1 18.08.2026 -
Antonín Kinský Tottenham Ativo 127 / 139 40% 1 11.08.2026 -
Patrick Mainka Heidenheim Ativo 141 / 135 58% 1 10.08.2026 -
Uwe Franke Mouscron Ativo 128 / 137 40% 1 04.08.2026 -
Jan Paul van Hecke Tottenham Ativo 158 / 161 40% 1 02.08.2026 -
Robin Koch Eintracht Frankfurt Ativo 148 / 146 40% 1 02.08.2026 -